Terminal Aerodrome Forecast
Issued by NWS Charleston, WV

Home | Current Version | Previous Version | Text Only | Print | Product List | Glossary On
Versions: 1 2 3 4 5 6 7 8 9 10 11 12 13 14 15 16 17 18 19 20 21 22 23 24 25 26 27 28 29
000
FTUS41 KRLX 231514 AAA
TAFEKN
TAF AMD
KEKN 231514Z 2315/2412 32006KT P6SM SCT150
     FM240000 00000KT P6SM SCT250
     FM240700 17004KT 6SM BR SCT250
     FM240900 18004KT 3SM BR SCT002=

USA.gov is the U.S. government's official web portal to all federal, state and local government web resources and services.